^^

STATION HISTORICAL DATA

Daily Summary for April 24, 2018 Units:  English    Metric   Both
« Previous Day
Next Day »
Daily Weekly Monthly Yearly Custom
  Current: High: Low: Average:
Temperature: 64.8 °F 65.5 °F 46.6 °F 51.8 °F
Dew Point: 36.5 °F 37.7 °F 33.4 °F 35.3 °F
Humidity: 35 % 64 % 31 % 54 %
Wind Speed: 12.7 mph 17.3 mph 0.0 mph 3.2 mph
Wind Gust: 12.7 mph 17.3 mph - -
Wind:North - - SSE
Pressure: 30.04 in 30.08 in 30.04 in -
Precipitation: 0.00 in      
Historical Graphs
 
 
Tabular Data for April 24, 2018
Time Temperature Dew Point Pressure Wind Wind Speed Wind Gust Humidity Rainfall Rate (Hourly) solar Conditions
00:02 51.5 °F 36.8 °F 30.08 in East 3.5 mph 3.5 mph 57 % 0.00 in 0.0 W/m2 CLR
00:07 51.5 °F 36.8 °F 30.08 in East 1.2 mph 1.2 mph 57 % 0.00 in 0.0 W/m2 CLR
00:12 51.7 °F 35.6 °F 30.08 in Calm     54 % 0.00 in 0.0 W/m2 CLR
00:17 51.9 °F 35.8 °F 30.08 in Calm     54 % 0.00 in 0.0 W/m2 CLR
00:22 51.9 °F 36.7 °F 30.08 in Calm     56 % 0.00 in 0.0 W/m2 CLR
00:27 51.6 °F 37.3 °F 30.08 in Calm     58 % 0.00 in 0.0 W/m2 CLR
00:32 51.1 °F 36.8 °F 30.08 in Calm     58 % 0.00 in 0.0 W/m2 CLR
00:37 50.6 °F 36.4 °F 30.08 in Calm     58 % 0.00 in 0.0 W/m2 CLR
00:42 50.6 °F 36.4 °F 30.08 in Calm     58 % 0.00 in 0.0 W/m2 CLR
00:47 50.8 °F 36.5 °F 30.08 in Calm     58 % 0.00 in 0.0 W/m2 CLR
00:52 51.0 °F 37.2 °F 30.08 in Calm     59 % 0.00 in 0.0 W/m2 CLR
00:57 51.1 °F 37.7 °F 30.08 in Calm     60 % 0.00 in 0.0 W/m2 CLR
01:02 51.0 °F 37.6 °F 30.07 in Calm     60 % 0.00 in 0.0 W/m2 CLR
01:07 50.7 °F 36.9 °F 30.07 in Calm     59 % 0.00 in 0.0 W/m2 CLR
01:12 50.6 °F 36.8 °F 30.07 in Calm     59 % 0.00 in 0.0 W/m2 CLR
01:17 50.6 °F 36.8 °F 30.07 in Calm     59 % 0.00 in 0.0 W/m2 CLR
01:22 50.7 °F 36.9 °F 30.07 in Calm     59 % 0.00 in 0.0 W/m2 CLR
01:27 50.8 °F 37.0 °F 30.07 in East 1.2 mph 1.2 mph 59 % 0.00 in 0.0 W/m2 CLR
01:31 50.8 °F 37.0 °F 30.07 in Calm     59 % 0.00 in 0.0 W/m2 CLR
01:36 50.7 °F 36.9 °F 30.07 in Calm     59 % 0.00 in 0.0 W/m2 CLR
01:42 50.8 °F 36.5 °F 30.07 in Calm     58 % 0.00 in 0.0 W/m2 CLR
01:47 50.9 °F 37.1 °F 30.07 in East 3.5 mph 3.5 mph 59 % 0.00 in 0.0 W/m2 CLR
01:52 50.9 °F 37.1 °F 30.07 in ENE 3.5 mph 3.5 mph 59 % 0.00 in 0.0 W/m2 CLR
01:57 50.9 °F 36.2 °F 30.07 in Calm     57 % 0.00 in 0.0 W/m2 CLR
02:02 51.1 °F 35.9 °F 30.07 in Calm     56 % 0.00 in 0.0 W/m2 BKN
02:07 51.0 °F 37.2 °F 30.07 in Calm     59 % 0.00 in 0.0 W/m2 BKN
02:12 50.9 °F 36.6 °F 30.07 in Calm     58 % 0.00 in 0.0 W/m2 BKN
02:17 50.6 °F 36.8 °F 30.07 in Calm     59 % 0.00 in 0.0 W/m2 BKN
02:22 50.4 °F 36.2 °F 30.07 in Calm     58 % 0.00 in 0.0 W/m2 BKN
02:27 50.4 °F 36.6 °F 30.07 in ENE 3.0 mph 3.0 mph 59 % 0.00 in 0.0 W/m2 BKN
02:32 50.3 °F 36.5 °F 30.07 in NNE 3.5 mph 3.5 mph 59 % 0.00 in 0.0 W/m2 BKN
02:37 50.3 °F 35.6 °F 30.07 in Calm     57 % 0.00 in 0.0 W/m2 BKN
02:42 50.3 °F 36.1 °F 30.07 in Calm     58 % 0.00 in 0.0 W/m2 BKN
02:47 50.2 °F 36.4 °F 30.07 in NNW 3.5 mph 3.5 mph 59 % 0.00 in 0.0 W/m2 BKN
02:52 49.8 °F 36.5 °F 30.07 in North 4.6 mph 4.6 mph 60 % 0.00 in 0.0 W/m2 BKN
02:57 49.6 °F 35.8 °F 30.06 in NNE 3.5 mph 3.5 mph 59 % 0.00 in 0.0 W/m2 BKN
03:02 49.7 °F 35.1 °F 30.06 in NE 4.0 mph 4.0 mph 57 % 0.00 in 0.0 W/m2 SCT
03:07 49.9 °F 34.8 °F 30.06 in NE 3.5 mph 3.5 mph 56 % 0.00 in 0.0 W/m2 SCT
03:12 50.0 °F 34.5 °F 30.06 in NNE 3.5 mph 3.5 mph 55 % 0.00 in 0.0 W/m2 SCT
03:17 50.0 °F 34.5 °F 30.06 in Calm     55 % 0.00 in 0.0 W/m2 SCT
03:22 49.9 °F 33.9 °F 30.06 in Calm     54 % 0.00 in 0.0 W/m2 SCT
03:28 50.0 °F 34.0 °F 30.06 in Calm     54 % 0.00 in 0.0 W/m2 SCT
03:34 49.9 °F 33.4 °F 30.07 in Calm     53 % 0.00 in 0.0 W/m2 SCT
03:39 49.9 °F 33.4 °F 30.07 in Calm     53 % 0.00 in 0.0 W/m2 SCT
03:45 49.9 °F 34.8 °F 30.06 in Calm     56 % 0.00 in 0.0 W/m2 SCT
03:50 49.5 °F 34.9 °F 30.06 in Calm     57 % 0.00 in 0.0 W/m2 SCT
03:55 49.0 °F 34.9 °F 30.06 in Calm     58 % 0.00 in 0.0 W/m2 SCT
04:00 48.7 °F 35.0 °F 30.06 in Calm     59 % 0.00 in 0.0 W/m2 SCT
04:05 48.5 °F 34.4 °F 30.06 in Calm     58 % 0.00 in 0.0 W/m2 SCT
04:10 48.5 °F 34.8 °F 30.06 in Calm     59 % 0.00 in 0.0 W/m2 SCT
04:15 48.3 °F 34.6 °F 30.06 in Calm     59 % 0.00 in 0.0 W/m2 SCT
04:18 48.1 °F 34.9 °F 30.06 in Calm     60 % 0.00 in 0.0 W/m2 SCT
04:23 47.7 °F 34.1 °F 30.06 in NW 3.5 mph 3.5 mph 59 % 0.00 in 0.0 W/m2 SCT
04:28 47.7 °F 34.5 °F 30.06 in Calm     60 % 0.00 in 0.0 W/m2 SCT
04:33 47.5 °F 34.3 °F 30.06 in Calm     60 % 0.00 in 0.0 W/m2 SCT
04:38 47.3 °F 34.5 °F 30.06 in NW 2.3 mph 2.3 mph 61 % 0.00 in 0.0 W/m2 SCT
04:43 47.0 °F 33.8 °F 30.06 in Calm     60 % 0.00 in 0.0 W/m2 SCT
04:48 46.9 °F 34.6 °F 30.06 in Calm     62 % 0.00 in 0.0 W/m2 SCT
04:53 46.8 °F 34.5 °F 30.06 in Calm     62 % 0.00 in 0.0 W/m2 SCT
04:58 46.6 °F 33.9 °F 30.06 in NNW 1.2 mph   61 % 0.00 in 0.0 W/m2 SCT
05:03 46.7 °F 34.0 °F 30.06 in Calm     61 % 0.00 in 0.0 W/m2 SCT
05:08 46.7 °F 34.0 °F 30.06 in Calm     61 % 0.00 in 0.0 W/m2 SCT
05:13 46.8 °F 34.9 °F 30.06 in Calm     63 % 0.00 in 0.0 W/m2 SCT
05:18 47.0 °F 35.0 °F 30.06 in Calm     63 % 0.00 in 0.0 W/m2 SCT
05:23 47.0 °F 34.6 °F 30.06 in Calm     62 % 0.00 in 0.0 W/m2 SCT
05:28 47.0 °F 34.6 °F 30.06 in Calm     62 % 0.00 in 0.0 W/m2 SCT
05:33 47.0 °F 34.6 °F 30.06 in Calm     62 % 0.00 in 0.0 W/m2 SCT
05:38 47.1 °F 34.3 °F 30.07 in Calm     61 % 0.00 in 0.0 W/m2 SCT
05:43 47.4 °F 34.2 °F 30.07 in Calm     60 % 0.00 in 0.0 W/m2 SCT
05:49 47.6 °F 34.8 °F 30.07 in Calm     61 % 0.00 in 0.0 W/m2 SCT
05:54 47.4 °F 35.4 °F 30.07 in Calm     63 % 0.00 in 0.0 W/m2 SCT
05:59 47.2 °F 35.6 °F 30.07 in Calm     64 % 0.00 in 0.0 W/m2 SCT
06:04 47.0 °F 35.4 °F 30.07 in Calm     64 % 0.00 in 0.0 W/m2 SCT
06:09 46.9 °F 35.0 °F 30.07 in Calm     63 % 0.00 in 0.0 W/m2 SCT
06:14 46.9 °F 35.0 °F 30.07 in Calm     63 % 0.00 in 0.0 W/m2 OVC
06:19 47.2 °F 34.8 °F 30.07 in Calm     62 % 0.00 in 7.0 W/m2 OVC
06:24 47.2 °F 35.2 °F 30.07 in Calm     63 % 0.00 in 9.0 W/m2 OVC
06:29 47.2 °F 35.2 °F 30.08 in Calm     63 % 0.00 in 14.0 W/m2 OVC
06:34 47.1 °F 33.9 °F 30.07 in Calm     60 % 0.00 in 16.0 W/m2 OVC
06:39 47.3 °F 34.5 °F 30.07 in Calm     61 % 0.00 in 19.0 W/m2 OVC
06:44 47.3 °F 35.7 °F 30.07 in Calm     64 % 0.00 in 25.0 W/m2 BKN
06:49 47.2 °F 35.2 °F 30.08 in Calm     63 % 0.00 in 26.0 W/m2 BKN
06:54 47.2 °F 35.6 °F 30.07 in Calm     64 % 0.00 in 33.0 W/m2 BKN
06:59 47.2 °F 35.2 °F 30.07 in Calm     63 % 0.00 in 42.0 W/m2 BKN
07:04 47.3 °F 34.9 °F 30.07 in NNW 2.3 mph 2.3 mph 62 % 0.00 in 51.0 W/m2 BKN
07:09 47.4 °F 35.0 °F 30.07 in Calm     62 % 0.00 in 58.0 W/m2 BKN
07:15 47.6 °F 34.8 °F 30.07 in Calm     61 % 0.00 in 60.0 W/m2 BKN
07:20 47.8 °F 34.6 °F 30.07 in Calm     60 % 0.00 in 53.0 W/m2 BKN
07:25 48.0 °F 34.3 °F 30.07 in Calm     59 % 0.00 in 51.0 W/m2 BKN
07:30 48.0 °F 34.8 °F 30.08 in NNW 4.0 mph 4.0 mph 60 % 0.00 in 60.0 W/m2 BKN
07:35 47.9 °F 34.7 °F 30.08 in NNW 4.0 mph 4.0 mph 60 % 0.00 in 58.0 W/m2 BKN
07:40 47.8 °F 34.6 °F 30.08 in NW 4.6 mph 4.6 mph 60 % 0.00 in 70.0 W/m2 BKN
07:45 47.8 °F 34.6 °F 30.08 in NW 4.6 mph 4.6 mph 60 % 0.00 in 95.0 W/m2 BKN
07:50 47.8 °F 35.0 °F 30.08 in Calm     61 % 0.00 in 100.0 W/m2 BKN
07:55 47.9 °F 34.7 °F 30.08 in NNW 9.2 mph 9.2 mph 60 % 0.00 in 111.0 W/m2 BKN
08:00 48.1 °F 34.9 °F 30.08 in NNW 9.2 mph 9.2 mph 60 % 0.00 in 97.0 W/m2 BKN
08:05 48.2 °F 35.0 °F 30.08 in NNW 4.6 mph 4.6 mph 60 % 0.00 in 113.0 W/m2 SCT
08:10 48.6 °F 35.7 °F 30.08 in NNW 10.4 mph 10.4 mph 61 % 0.00 in 352.0 W/m2 SCT
08:15 49.7 °F 37.2 °F 30.08 in Calm     62 % 0.00 in 350.0 W/m2 SCT
08:20 51.2 °F 35.1 °F 30.08 in NW 9.2 mph 9.2 mph 54 % 0.00 in 223.0 W/m2 SCT
08:25 52.1 °F 34.5 °F 30.08 in NNW 10.0 mph 10.0 mph 51 % 0.00 in 163.0 W/m2 SCT
08:30 52.4 °F 34.3 °F 30.08 in NNW 4.6 mph 4.6 mph 50 % 0.00 in 192.0 W/m2 SCT
08:35 52.7 °F 35.6 °F 30.08 in NNW 8.1 mph 8.1 mph 52 % 0.00 in 176.0 W/m2 SCT
08:40 53.1 °F 34.9 °F 30.08 in North 3.5 mph 4.1 mph 50 % 0.00 in 163.0 W/m2 SCT
08:45 53.2 °F 35.0 °F 30.08 in North 4.0 mph 4.0 mph 50 % 0.00 in 163.0 W/m2 SCT
08:50 53.4 °F 34.7 °F 30.07 in North 4.6 mph 4.6 mph 49 % 0.00 in 153.0 W/m2 SCT
08:55 53.9 °F 35.2 °F 30.07 in North 6.9 mph 6.9 mph 49 % 0.00 in 265.0 W/m2 SCT
09:01 55.0 °F 35.7 °F 30.07 in NNE 5.8 mph 5.8 mph 48 % 0.00 in 513.0 W/m2 SCT
09:06 56.0 °F 36.6 °F 30.06 in NNE 3.5 mph 3.5 mph 48 % 0.00 in 534.0 W/m2 BKN
09:11 57.5 °F 35.2 °F 30.06 in NNE 10.4 mph 10.4 mph 43 % 0.00 in 543.0 W/m2 BKN
09:16 58.5 °F 35.5 °F 30.06 in North 8.1 mph 8.1 mph 42 % 0.00 in 557.0 W/m2 BKN
09:21 59.1 °F 35.4 °F 30.06 in North 8.1 mph 8.1 mph 41 % 0.00 in 573.0 W/m2 BKN
09:26 59.5 °F 35.1 °F 30.06 in North 6.9 mph 6.9 mph 40 % 0.00 in 584.0 W/m2 BKN
09:31 60.2 °F 35.8 °F 30.06 in NNE 10.0 mph 10.0 mph 40 % 0.00 in 599.0 W/m2 BKN
09:33 60.4 °F 35.3 °F 30.06 in NNE 9.2 mph 9.2 mph 39 % 0.00 in 608.0 W/m2 BKN
09:38 60.9 °F 35.1 °F 30.06 in NNE 5.8 mph 5.8 mph 38 % 0.00 in 624.0 W/m2 BKN
09:43 61.4 °F 35.5 °F 30.06 in NNE 8.1 mph 8.1 mph 38 % 0.00 in 642.0 W/m2 BKN
09:48 61.6 °F 35.1 °F 30.05 in NNE 1.2 mph   37 % 0.00 in 657.0 W/m2 BKN
09:55 62.7 °F 33.9 °F 30.05 in NNE 16.0 mph 16.0 mph 34 % 0.00 in 686.0 W/m2 BKN
10:00 63.6 °F 35.4 °F 30.05 in North 11.5 mph 11.5 mph 35 % 0.00 in 705.0 W/m2 BKN
10:05 63.9 °F 33.4 °F 30.05 in North 12.7 mph 12.7 mph 32 % 0.00 in 715.0 W/m2 FEW
10:11 64.2 °F 34.5 °F 30.05 in North 12.7 mph 12.7 mph 33 % 0.00 in 740.0 W/m2 FEW
10:16 64.8 °F 35.8 °F 30.05 in North 12.7 mph 12.7 mph 34 % 0.00 in 768.0 W/m2 FEW
10:21 64.8 °F 34.2 °F 30.05 in North 13.8 mph 13.8 mph 32 % 0.00 in 773.0 W/m2 FEW
10:26 64.8 °F 35.0 °F 30.04 in North 17.3 mph 17.3 mph 33 % 0.00 in 745.0 W/m2 FEW
10:31 64.8 °F 34.2 °F 30.04 in NNE 11.5 mph 11.5 mph 32 % 0.00 in 731.0 W/m2 FEW
10:32 64.8 °F 35.0 °F 30.04 in NNE 13.8 mph 13.8 mph 33 % 0.00 in 677.0 W/m2 FEW
10:37 64.8 °F 33.4 °F 30.04 in NNE 13.0 mph 13.0 mph 31 % 0.00 in 798.0 W/m2 FEW
10:42 65.1 °F 35.3 °F 30.04 in NE 15.0 mph 15.0 mph 33 % 0.00 in 860.0 W/m2 FEW
10:49 65.5 °F 35.6 °F 30.04 in NNE 11.5 mph 11.5 mph 33 % 0.00 in 710.0 W/m2 FEW
10:54 65.1 °F 34.5 °F 30.04 in North 10.4 mph 10.4 mph 32 % 0.00 in 612.0 W/m2 FEW
10:59 65.1 °F 35.3 °F 30.04 in North 12.7 mph 12.7 mph 33 % 0.00 in 580.0 W/m2 FEW
11:04 64.8 °F 36.5 °F 30.04 in North 12.7 mph 12.7 mph 35 % 0.00 in 626.0 W/m2 CLR
Compliments of Weather Underground - 1.5 mb